createdAt,value
2017-09-11T00:01:01.984Z,0
2017-09-11T00:02:12.252Z,0
2017-09-11T00:03:22.204Z,0
2017-09-11T00:04:32.155Z,0
2017-09-11T00:05:42.413Z,0
2017-09-11T00:06:52.679Z,0
2017-09-11T00:08:02.941Z,0
2017-09-11T00:09:12.883Z,0
2017-09-11T00:10:22.821Z,0
2017-09-11T00:11:33.083Z,0
2017-09-11T00:12:42.704Z,0
2017-09-11T00:13:52.649Z,0
2017-09-11T00:15:02.910Z,0
2017-09-11T00:16:12.857Z,0
2017-09-11T00:17:23.125Z,0
2017-09-11T00:18:33.391Z,0
2017-09-11T00:19:43.012Z,0
2017-09-11T00:20:52.634Z,0
2017-09-11T00:22:02.900Z,0
2017-09-11T00:23:12.522Z,0
2017-09-11T00:24:22.792Z,0
2017-09-11T00:25:32.736Z,0
2017-09-11T00:26:43.005Z,0
2017-09-11T00:27:52.308Z,0
2017-09-11T00:29:02.259Z,0
2017-09-11T00:30:11.874Z,0
2017-09-11T00:31:22.144Z,0
2017-09-11T00:32:32.087Z,0
2017-09-11T00:33:42.033Z,0
2017-09-11T00:34:51.973Z,0
2017-09-11T00:36:02.236Z,0
2017-09-11T00:37:12.175Z,0
2017-09-11T00:38:22.433Z,0
2017-09-11T00:39:32.383Z,0
2017-09-11T00:40:42.645Z,0
2017-09-11T00:41:52.596Z,0
2017-09-11T00:43:02.855Z,0
2017-09-11T00:44:12.791Z,0
2017-09-11T00:45:23.050Z,0
2017-09-11T00:46:33.312Z,0
2017-09-11T00:47:43.573Z,0
2017-09-11T00:48:53.828Z,0
2017-09-11T00:50:04.094Z,0
2017-09-11T00:51:13.713Z,0
2017-09-11T00:52:23.975Z,0
2017-09-11T00:53:34.237Z,0
2017-09-11T00:54:44.504Z,0
2017-09-11T00:55:54.766Z,0
2017-09-11T00:57:05.021Z,0
2017-09-11T00:58:15.274Z,0
2017-09-11T00:59:25.540Z,0
2017-09-11T01:00:35.490Z,0
2017-09-11T01:01:45.750Z,0
2017-09-11T01:02:55.689Z,0
2017-09-11T01:04:05.951Z,0
2017-09-11T01:05:16.214Z,0
2017-09-11T01:06:26.475Z,0
2017-09-11T01:07:36.740Z,0
2017-09-11T01:08:46.999Z,0
2017-09-11T01:09:56.941Z,0
2017-09-11T01:11:07.196Z,0
2017-09-11T01:12:16.500Z,0
2017-09-11T01:13:26.762Z,0
2017-09-11T01:14:36.702Z,0
2017-09-11T01:15:46.969Z,0
2017-09-11T01:16:57.232Z,0
2017-09-11T01:18:06.852Z,0
2017-09-11T01:19:17.116Z,0
2017-09-11T01:20:27.374Z,0
2017-09-11T01:21:37.643Z,0
2017-09-11T01:22:47.903Z,0
2017-09-11T01:23:57.843Z,0
2017-09-11T01:25:07.788Z,0
2017-09-11T01:26:17.730Z,0
2017-09-11T01:27:27.667Z,0
2017-09-11T01:28:37.609Z,0
2017-09-11T01:29:47.875Z,0
2017-09-11T01:30:57.814Z,0
2017-09-11T01:32:08.321Z,0
2017-09-11T01:33:18.588Z,0
2017-09-11T01:34:28.535Z,0
2017-09-11T01:35:38.483Z,0
2017-09-11T01:36:48.418Z,0
2017-09-11T01:37:58.041Z,0
2017-09-11T01:39:07.982Z,0
2017-09-11T01:40:17.925Z,0
2017-09-11T01:41:27.867Z,0
2017-09-11T01:42:38.141Z,0
2017-09-11T01:43:48.087Z,0
2017-09-11T01:44:58.347Z,0
2017-09-11T01:46:08.288Z,0
2017-09-11T01:47:18.553Z,0
2017-09-11T01:48:28.824Z,0
2017-09-11T01:49:39.091Z,0
2017-09-11T01:50:49.352Z,0
2017-09-11T01:51:58.979Z,0
2017-09-11T01:53:09.242Z,0
2017-09-11T01:54:19.180Z,0
2017-09-11T01:55:29.126Z,0
2017-09-11T01:56:39.414Z,0
2017-09-11T01:57:49.038Z,0
2017-09-11T01:58:59.336Z,0
2017-09-11T02:00:09.279Z,0
2017-09-11T02:01:19.515Z,0
2017-09-11T02:02:29.140Z,0
2017-09-11T02:03:39.411Z,0
2017-09-11T02:04:49.360Z,0
2017-09-11T02:05:59.301Z,0
2017-09-11T02:07:09.245Z,0
2017-09-11T02:08:19.510Z,0
2017-09-11T02:09:29.455Z,0
2017-09-11T02:10:39.719Z,0
2017-09-11T02:11:49.659Z,0
2017-09-11T02:12:59.923Z,0
2017-09-11T02:14:09.902Z,0
2017-09-11T02:15:19.522Z,0
2017-09-11T02:16:29.782Z,0
2017-09-11T02:17:40.041Z,0
2017-09-11T02:18:49.668Z,0
2017-09-11T02:19:59.614Z,0
2017-09-11T02:21:09.554Z,0
2017-09-11T02:22:19.818Z,0
2017-09-11T02:23:30.078Z,0
2017-09-11T02:24:40.347Z,0
2017-09-11T02:25:49.976Z,0
2017-09-11T02:26:59.595Z,0
2017-09-11T02:28:09.863Z,0
2017-09-11T02:29:19.805Z,0
2017-09-11T02:30:29.105Z,0
2017-09-11T02:31:39.377Z,0
2017-09-11T02:32:49.330Z,0
2017-09-11T02:33:59.598Z,0
2017-09-11T02:35:09.216Z,0
2017-09-11T02:36:18.844Z,0
2017-09-11T02:37:29.109Z,0
2017-09-11T02:38:39.053Z,0
2017-09-11T02:39:49.332Z,0
2017-09-11T02:40:59.601Z,0
2017-09-11T02:42:09.697Z,0
2017-09-11T02:43:19.956Z,0
2017-09-11T02:44:29.905Z,0
2017-09-11T02:45:39.853Z,0
2017-09-11T02:46:50.121Z,0
2017-09-11T02:48:00.419Z,0
2017-09-11T02:49:10.697Z,0
2017-09-11T02:50:20.964Z,0
2017-09-11T02:51:31.225Z,0
2017-09-11T02:52:41.170Z,0
2017-09-11T02:53:51.113Z,0
2017-09-11T02:55:01.376Z,0
2017-09-11T02:56:11.327Z,0
2017-09-11T02:57:21.591Z,0
2017-09-11T02:58:31.865Z,0
2017-09-11T02:59:42.130Z,0
2017-09-11T03:00:52.082Z,0
2017-09-11T03:02:02.381Z,0
2017-09-11T03:03:11.999Z,0
2017-09-11T03:04:21.939Z,0
2017-09-11T03:05:32.205Z,0
2017-09-11T03:06:42.475Z,0
2017-09-11T03:07:52.089Z,0
2017-09-11T03:09:02.349Z,0
2017-09-11T03:10:12.291Z,0
2017-09-11T03:11:21.910Z,0
2017-09-11T03:12:31.528Z,0
2017-09-11T03:13:41.808Z,0
2017-09-11T03:14:51.751Z,0
2017-09-11T03:16:02.009Z,0
2017-09-11T03:17:11.951Z,0
2017-09-11T03:18:22.212Z,0
2017-09-11T03:19:32.155Z,0
2017-09-11T03:20:42.096Z,0
2017-09-11T03:21:52.041Z,0
2017-09-11T03:23:01.985Z,0
2017-09-11T03:24:11.929Z,0
2017-09-11T03:25:21.868Z,0
2017-09-11T03:26:32.170Z,0
2017-09-11T03:27:42.122Z,0
2017-09-11T03:28:52.395Z,0
2017-09-11T03:30:02.342Z,0
2017-09-11T03:31:11.973Z,0
2017-09-11T03:32:22.242Z,0
2017-09-11T03:33:32.183Z,0
2017-09-11T03:34:42.440Z,0
2017-09-11T03:35:52.704Z,0
2017-09-11T03:37:02.651Z,0
2017-09-11T03:38:12.285Z,0
2017-09-11T03:39:22.551Z,0
2017-09-11T03:40:32.820Z,0
2017-09-11T03:41:43.089Z,0
2017-09-11T03:42:53.352Z,0
2017-09-11T03:44:03.658Z,0
2017-09-11T03:45:13.930Z,0
2017-09-11T03:46:24.189Z,0
2017-09-11T03:47:34.452Z,0
2017-09-11T03:48:44.722Z,0
2017-09-11T03:49:54.669Z,0
2017-09-11T03:51:04.941Z,0
2017-09-11T03:52:15.209Z,0
2017-09-11T03:53:25.156Z,0
2017-09-11T03:54:35.419Z,0
2017-09-11T03:55:45.680Z,0
2017-09-11T03:56:55.620Z,0
2017-09-11T03:58:05.558Z,0
2017-09-11T03:59:15.176Z,0
2017-09-11T04:00:25.438Z,0
2017-09-11T04:01:35.700Z,0
2017-09-11T04:02:45.969Z,0
2017-09-11T04:03:55.916Z,0
2017-09-11T04:05:05.857Z,0
2017-09-11T04:06:15.805Z,0
2017-09-11T04:07:25.745Z,0
2017-09-11T04:08:35.695Z,0
2017-09-11T04:09:45.997Z,0
2017-09-11T04:10:56.264Z,0
2017-09-11T04:12:06.209Z,0
2017-09-11T04:13:16.503Z,0
2017-09-11T04:14:26.771Z,0
2017-09-11T04:15:37.087Z,0
2017-09-11T04:16:47.033Z,0
2017-09-11T04:17:57.299Z,0
2017-09-11T04:19:07.248Z,0
2017-09-11T04:20:17.511Z,0
2017-09-11T04:21:26.812Z,0
2017-09-11T04:22:37.115Z,0
2017-09-11T04:23:47.062Z,0
2017-09-11T04:24:57.336Z,0
2017-09-11T04:26:06.961Z,0
2017-09-11T04:27:17.228Z,5
2017-09-11T04:28:27.490Z,5
2017-09-11T04:29:37.755Z,5
2017-09-11T04:30:47.370Z,5
2017-09-11T04:31:57.648Z,5
2017-09-11T04:33:07.591Z,5
2017-09-11T04:34:17.530Z,5
2017-09-11T04:35:27.148Z,5
2017-09-11T04:36:37.092Z,5
2017-09-11T04:37:47.355Z,5
2017-09-11T04:38:57.295Z,5
2017-09-11T04:40:07.571Z,5
2017-09-11T04:41:17.845Z,5
2017-09-11T04:42:28.104Z,5
2017-09-11T04:43:38.367Z,5
2017-09-11T04:44:48.312Z,5
2017-09-11T04:45:58.579Z,5
2017-09-11T04:47:08.517Z,5
2017-09-11T04:48:18.785Z,5
2017-09-11T04:49:28.728Z,5
2017-09-11T04:50:38.990Z,5
2017-09-11T04:51:48.935Z,10
2017-09-11T04:52:59.213Z,10
2017-09-11T04:54:09.475Z,15
2017-09-11T04:55:19.416Z,15
2017-09-11T04:56:29.062Z,15
2017-09-11T04:57:39.009Z,10
2017-09-11T04:58:48.959Z,10
2017-09-11T04:59:58.262Z,10
2017-09-11T05:01:08.207Z,15
2017-09-11T05:02:17.829Z,15
2017-09-11T05:03:28.096Z,20
2017-09-11T05:04:38.404Z,20
2017-09-11T05:05:48.345Z,20
2017-09-11T05:06:58.287Z,15
2017-09-11T05:08:07.913Z,15
2017-09-11T05:09:17.854Z,20
2017-09-11T05:10:28.111Z,15
2017-09-11T05:11:38.054Z,15
2017-09-11T05:12:47.996Z,15
2017-09-11T05:13:58.256Z,15
2017-09-11T05:15:07.881Z,20
2017-09-11T05:16:17.828Z,20
2017-09-11T05:17:28.092Z,20
2017-09-11T05:18:38.360Z,25
2017-09-11T05:19:48.624Z,20
2017-09-11T05:20:58.563Z,15
2017-09-11T05:22:08.831Z,10
2017-09-11T05:23:18.780Z,10
2017-09-11T05:24:29.059Z,10
2017-09-11T05:25:39.320Z,10
2017-09-11T05:26:49.263Z,20
2017-09-11T05:27:59.211Z,30
2017-09-11T05:29:09.476Z,35
2017-09-11T05:30:19.415Z,40
2017-09-11T05:31:29.680Z,45
2017-09-11T05:32:39.950Z,50
2017-09-11T05:33:49.907Z,50
2017-09-11T05:35:00.176Z,50
2017-09-11T05:36:09.799Z,45
2017-09-11T05:37:20.058Z,40
2017-09-11T05:38:29.998Z,40
2017-09-11T05:39:40.264Z,40
2017-09-11T05:40:50.537Z,35
2017-09-11T05:42:00.806Z,35
2017-09-11T05:43:11.066Z,40
2017-09-11T05:44:21.074Z,35
2017-09-11T05:45:31.347Z,30
2017-09-11T05:46:41.608Z,20
2017-09-11T05:47:51.892Z,20
2017-09-11T05:49:02.160Z,35
2017-09-11T05:50:12.420Z,40
2017-09-11T05:51:22.689Z,45
2017-09-11T05:52:32.952Z,50
2017-09-11T05:53:42.897Z,55
2017-09-11T05:54:52.842Z,55
2017-09-11T05:56:03.105Z,50
2017-09-11T05:57:13.369Z,50
2017-09-11T05:58:22.990Z,45
2017-09-11T05:59:33.248Z,30
2017-09-11T06:00:43.514Z,20
2017-09-11T06:01:53.778Z,15
2017-09-11T06:03:04.047Z,10
2017-09-11T06:04:14.315Z,10
2017-09-11T06:05:24.259Z,15
2017-09-11T06:06:34.224Z,35
2017-09-11T06:07:44.504Z,45
2017-09-11T06:08:54.799Z,50
2017-09-11T06:10:04.746Z,45
2017-09-11T06:11:15.007Z,40
2017-09-11T06:12:24.956Z,35
2017-09-11T06:13:35.222Z,25
2017-09-11T06:14:45.161Z,20
2017-09-11T06:15:55.136Z,15
2017-09-11T06:17:05.407Z,10
2017-09-11T06:18:15.665Z,10
2017-09-11T06:19:25.295Z,10
2017-09-11T06:20:35.238Z,10
2017-09-11T06:21:44.534Z,10
2017-09-11T06:22:54.480Z,15
2017-09-11T06:24:04.766Z,20
2017-09-11T06:25:14.714Z,15
2017-09-11T06:26:24.653Z,15
2017-09-11T06:27:34.594Z,15
2017-09-11T06:28:44.534Z,20
2017-09-11T06:29:54.154Z,20
2017-09-11T06:31:03.777Z,25
2017-09-11T06:32:13.722Z,35
2017-09-11T06:33:23.663Z,50
2017-09-11T06:34:33.934Z,50
2017-09-11T06:35:44.197Z,75
2017-09-11T06:36:54.460Z,90
2017-09-11T06:38:04.727Z,80
2017-09-11T06:39:14.986Z,60
2017-09-11T06:40:25.265Z,65
2017-09-11T06:41:34.884Z,85
2017-09-11T06:42:44.828Z,95
2017-09-11T06:43:54.450Z,110
2017-09-11T06:45:04.720Z,100
2017-09-11T06:46:15.007Z,80
2017-09-11T06:47:25.269Z,65
2017-09-11T06:48:35.212Z,65
2017-09-11T06:49:45.159Z,75
2017-09-11T06:50:54.797Z,85
2017-09-11T06:52:04.428Z,95
2017-09-11T06:53:14.371Z,105
2017-09-11T06:54:24.631Z,115
2017-09-11T06:55:34.901Z,120
2017-09-11T06:56:45.161Z,125
2017-09-11T06:57:55.425Z,130
2017-09-11T06:59:05.691Z,135
2017-09-11T07:00:15.308Z,135
2017-09-11T07:01:25.569Z,120
2017-09-11T07:02:35.509Z,95
2017-09-11T07:03:45.772Z,60
2017-09-11T07:04:55.724Z,45
2017-09-11T07:06:05.680Z,35
2017-09-11T07:07:15.942Z,35
2017-09-11T07:08:26.209Z,35
2017-09-11T07:09:35.832Z,35
2017-09-11T07:10:45.773Z,30
2017-09-11T07:11:56.042Z,35
2017-09-11T07:13:05.992Z,40
2017-09-11T07:14:15.939Z,40
2017-09-11T07:15:26.201Z,50
2017-09-11T07:16:35.826Z,85
2017-09-11T07:17:45.778Z,105
2017-09-11T07:18:55.399Z,115
2017-09-11T07:20:05.345Z,90
2017-09-11T07:21:15.292Z,90
2017-09-11T07:22:25.233Z,80
2017-09-11T07:23:35.505Z,70
2017-09-11T07:24:45.775Z,85
2017-09-11T07:25:56.054Z,110
2017-09-11T07:27:05.999Z,125
2017-09-11T07:28:16.263Z,115
2017-09-11T07:29:26.525Z,100
2017-09-11T07:30:36.790Z,90
2017-09-11T07:31:47.090Z,85
2017-09-11T07:32:57.359Z,75
2017-09-11T07:34:07.624Z,75
2017-09-11T07:35:17.572Z,80
2017-09-11T07:36:27.513Z,80
2017-09-11T07:37:37.128Z,95
2017-09-11T07:38:47.072Z,115
2017-09-11T07:39:57.336Z,145
2017-09-11T07:41:07.607Z,145
2017-09-11T07:42:17.909Z,120
2017-09-11T07:43:28.179Z,120
2017-09-11T07:44:38.123Z,135
2017-09-11T07:45:48.388Z,150
2017-09-11T07:46:58.338Z,140
2017-09-11T07:48:08.598Z,135
2017-09-11T07:49:18.541Z,125
2017-09-11T07:50:28.488Z,115
2017-09-11T07:51:37.790Z,110
2017-09-11T07:52:47.729Z,110
2017-09-11T07:53:57.672Z,110
2017-09-11T07:55:07.296Z,105
2017-09-11T07:56:17.567Z,80
2017-09-11T07:57:27.514Z,75
2017-09-11T07:58:37.455Z,90
2017-09-11T07:59:47.722Z,85
2017-09-11T08:00:58.024Z,90
2017-09-11T08:02:08.286Z,90
2017-09-11T08:03:17.911Z,80
2017-09-11T08:04:28.175Z,85
2017-09-11T08:05:38.129Z,85
2017-09-11T08:06:48.395Z,80
2017-09-11T08:07:58.658Z,85
2017-09-11T08:09:08.920Z,90
2017-09-11T08:10:19.190Z,95
2017-09-11T08:11:29.146Z,95
2017-09-11T08:12:39.090Z,95
2017-09-11T08:13:49.351Z,90
2017-09-11T08:14:59.641Z,100
2017-09-11T08:16:08.941Z,80
2017-09-11T08:17:19.216Z,80
2017-09-11T08:18:29.160Z,85
2017-09-11T08:19:39.427Z,70
2017-09-11T08:20:51.943Z,75
2017-09-11T08:22:01.889Z,90
2017-09-11T08:23:12.163Z,95
2017-09-11T08:24:21.787Z,100
2017-09-11T08:25:31.736Z,100
2017-09-11T08:26:42.002Z,100
2017-09-11T08:27:51.947Z,115
2017-09-11T08:29:01.894Z,115
2017-09-11T08:30:11.867Z,115
2017-09-11T08:31:21.811Z,120
2017-09-11T08:32:31.434Z,115
2017-09-11T08:33:41.054Z,125
2017-09-11T08:34:51.317Z,135
2017-09-11T08:36:01.583Z,145
2017-09-11T08:37:11.855Z,145
2017-09-11T08:38:21.480Z,130
2017-09-11T08:39:31.744Z,100
2017-09-11T08:40:42.010Z,70
2017-09-11T08:41:51.630Z,55
2017-09-11T08:43:01.584Z,70
2017-09-11T08:44:11.536Z,75
2017-09-11T08:45:21.797Z,60
2017-09-11T08:46:32.065Z,60
2017-09-11T08:47:42.336Z,55
2017-09-11T08:48:52.595Z,45
2017-09-11T08:50:02.214Z,40
2017-09-11T08:51:12.166Z,45
2017-09-11T08:52:22.111Z,40
2017-09-11T08:53:32.058Z,35
2017-09-11T08:54:42.005Z,30
2017-09-11T08:55:51.955Z,30
2017-09-11T08:57:02.220Z,35
2017-09-11T08:58:11.843Z,45
2017-09-11T08:59:21.462Z,65
2017-09-11T09:00:31.412Z,70
2017-09-11T09:01:41.352Z,90
2017-09-11T09:02:51.296Z,70
2017-09-11T09:04:01.560Z,70
2017-09-11T09:05:11.504Z,60
2017-09-11T09:06:21.444Z,65
2017-09-11T09:07:31.393Z,65
2017-09-11T09:08:41.011Z,65
2017-09-11T09:09:51.275Z,60
2017-09-11T09:11:01.236Z,55
2017-09-11T09:12:10.539Z,50
2017-09-11T09:13:20.485Z,50
2017-09-11T09:14:30.426Z,55
2017-09-11T09:15:40.373Z,55
2017-09-11T09:16:49.994Z,75
2017-09-11T09:17:59.618Z,95
2017-09-11T09:19:09.887Z,85
2017-09-11T09:20:19.835Z,95
2017-09-11T09:21:29.780Z,120
2017-09-11T09:22:39.729Z,95
2017-09-11T09:23:49.675Z,95
2017-09-11T09:24:58.978Z,60
2017-09-11T09:26:09.240Z,45
2017-09-11T09:27:19.184Z,60
2017-09-11T09:28:29.125Z,50
2017-09-11T09:29:39.075Z,45
2017-09-11T09:30:49.016Z,60
2017-09-11T09:31:59.282Z,70
2017-09-11T09:33:09.223Z,60
2017-09-11T09:34:19.172Z,75
2017-09-11T09:35:29.438Z,65
2017-09-11T09:36:39.709Z,70
2017-09-11T09:37:49.979Z,110
2017-09-11T09:38:59.612Z,120
2017-09-11T09:40:09.585Z,125
2017-09-11T09:41:19.527Z,120
2017-09-11T09:42:29.472Z,115
2017-09-11T09:43:39.093Z,115
2017-09-11T09:44:49.040Z,135
2017-09-11T09:45:59.305Z,110
2017-09-11T09:47:09.252Z,115
2017-09-11T09:48:18.239Z,100
2017-09-11T09:49:28.525Z,130
2017-09-11T09:50:38.466Z,100
2017-09-11T09:51:48.732Z,80
2017-09-11T09:52:58.996Z,90
2017-09-11T09:54:08.938Z,100
2017-09-11T09:55:18.883Z,105
2017-09-11T09:56:29.140Z,120
2017-09-11T09:57:39.401Z,105
2017-09-11T09:58:49.741Z,95
2017-09-11T09:59:59.691Z,100
2017-09-11T10:01:08.993Z,85
2017-09-11T10:02:19.255Z,80
2017-09-11T10:03:29.225Z,85
2017-09-11T10:04:38.854Z,70
2017-09-11T10:05:49.126Z,60
2017-09-11T10:06:58.755Z,65
2017-09-11T10:08:09.020Z,85
2017-09-11T10:09:19.299Z,85
2017-09-11T10:10:29.244Z,85
2017-09-11T10:11:39.190Z,110
2017-09-11T10:12:49.462Z,120
2017-09-11T10:13:59.731Z,115
2017-09-11T10:15:09.677Z,95
2017-09-11T10:16:19.623Z,85
2017-09-11T10:17:29.566Z,95
2017-09-11T10:18:39.508Z,100
2017-09-11T10:19:49.780Z,110
2017-09-11T10:20:59.723Z,100
2017-09-11T10:22:09.673Z,90
2017-09-11T10:23:19.947Z,80
2017-09-11T10:24:29.588Z,75
2017-09-11T10:25:39.851Z,90
2017-09-11T10:26:49.792Z,70
2017-09-11T10:28:00.057Z,60
2017-09-11T10:29:10.004Z,65
2017-09-11T10:30:20.270Z,70
2017-09-11T10:31:29.568Z,70
2017-09-11T10:32:39.839Z,110
2017-09-11T10:33:49.782Z,95
2017-09-11T10:34:59.819Z,75
2017-09-11T10:36:09.441Z,65
2017-09-11T10:37:19.702Z,85
2017-09-11T10:38:29.647Z,70
2017-09-11T10:39:39.269Z,70
2017-09-11T10:40:49.544Z,80
2017-09-11T10:41:59.805Z,60
2017-09-11T10:43:09.746Z,50
2017-09-11T10:44:20.028Z,65
2017-09-11T10:45:29.653Z,60
2017-09-11T10:46:39.284Z,50
2017-09-11T10:47:48.916Z,50
2017-09-11T10:48:58.853Z,65
2017-09-11T10:50:08.797Z,80
2017-09-11T10:51:19.060Z,65
2017-09-11T10:52:28.683Z,75
2017-09-11T10:53:38.674Z,60
2017-09-11T10:54:48.617Z,55
2017-09-11T10:55:58.883Z,75
2017-09-11T10:57:08.825Z,65
2017-09-11T10:58:18.447Z,55
2017-09-11T10:59:28.713Z,50
2017-09-11T11:00:38.660Z,75
2017-09-11T11:01:48.928Z,55
2017-09-11T11:02:59.199Z,60
2017-09-11T11:04:09.457Z,65
2017-09-11T11:05:19.729Z,50
2017-09-11T11:06:29.988Z,50
2017-09-11T11:07:39.931Z,50
2017-09-11T11:08:49.872Z,50
2017-09-11T11:09:59.814Z,35
2017-09-11T11:11:09.755Z,30
2017-09-11T11:12:20.027Z,35
2017-09-11T11:13:29.651Z,35
2017-09-11T11:14:39.927Z,45
2017-09-11T11:15:49.904Z,55
2017-09-11T11:17:00.169Z,50
2017-09-11T11:18:10.111Z,45
2017-09-11T11:19:20.055Z,65
2017-09-11T11:20:29.993Z,85
2017-09-11T11:21:40.259Z,80
2017-09-11T11:22:50.525Z,80
2017-09-11T11:24:00.807Z,75
2017-09-11T11:25:11.070Z,65
2017-09-11T11:26:21.014Z,75
2017-09-11T11:27:31.276Z,100
2017-09-11T11:28:41.216Z,75
2017-09-11T11:29:51.162Z,65
2017-09-11T11:31:01.426Z,65
2017-09-11T11:32:11.369Z,70
2017-09-11T11:33:21.320Z,80
2017-09-11T11:34:31.265Z,60
2017-09-11T11:35:41.209Z,60
2017-09-11T11:36:51.156Z,60
2017-09-11T11:38:01.100Z,55
2017-09-11T11:39:11.042Z,60
2017-09-11T11:40:20.991Z,80
2017-09-11T11:41:30.933Z,115
2017-09-11T11:42:40.891Z,85
2017-09-11T11:43:50.838Z,75
2017-09-11T11:45:01.107Z,110
2017-09-11T11:46:11.059Z,110
2017-09-11T11:47:21.001Z,125
2017-09-11T11:48:30.303Z,125
2017-09-11T11:49:40.281Z,90
2017-09-11T11:50:50.225Z,70
2017-09-11T11:52:00.167Z,65
2017-09-11T11:53:09.794Z,60
2017-09-11T11:54:19.422Z,65
2017-09-11T11:55:29.363Z,70
2017-09-11T11:56:38.989Z,55
2017-09-11T11:57:49.256Z,45
2017-09-11T11:58:59.519Z,45
2017-09-11T12:00:09.461Z,50
2017-09-11T12:01:19.410Z,50
2017-09-11T12:02:29.350Z,55
2017-09-11T12:03:39.617Z,75
2017-09-11T12:04:49.556Z,85
2017-09-11T12:05:59.182Z,100
2017-09-11T12:07:09.132Z,85
2017-09-11T12:08:18.757Z,75
2017-09-11T12:09:28.696Z,70
2017-09-11T12:10:38.952Z,60
2017-09-11T12:11:49.232Z,65
2017-09-11T12:12:59.176Z,75
2017-09-11T12:14:09.130Z,115
2017-09-11T12:15:19.071Z,125
2017-09-11T12:16:29.341Z,115
2017-09-11T12:17:39.602Z,120
2017-09-11T12:18:49.224Z,120
2017-09-11T12:19:58.841Z,120
2017-09-11T12:21:08.794Z,110
2017-09-11T12:22:19.067Z,105
2017-09-11T12:23:29.334Z,105
2017-09-11T12:24:39.278Z,100
2017-09-11T12:25:49.544Z,95
2017-09-11T12:26:59.166Z,95
2017-09-11T12:28:09.432Z,95
2017-09-11T12:29:19.373Z,90
2017-09-11T12:30:28.992Z,100
2017-09-11T12:31:38.930Z,110
2017-09-11T12:32:49.196Z,120
2017-09-11T12:33:59.461Z,125
2017-09-11T12:35:08.548Z,105
2017-09-11T12:36:18.812Z,110
2017-09-11T12:37:29.081Z,105
2017-09-11T12:38:39.023Z,110
2017-09-11T12:39:48.969Z,95
2017-09-11T12:40:58.912Z,90
2017-09-11T12:42:08.534Z,85
2017-09-11T12:43:18.798Z,90
2017-09-11T12:44:29.063Z,105
2017-09-11T12:45:38.686Z,105
2017-09-11T12:46:48.634Z,135
2017-09-11T12:47:58.897Z,170
2017-09-11T12:49:09.161Z,170
2017-09-11T12:50:19.102Z,190
2017-09-11T12:51:29.053Z,160
2017-09-11T12:52:39.322Z,125
2017-09-11T12:53:48.945Z,130
2017-09-11T12:54:58.899Z,185
2017-09-11T12:56:08.519Z,270
2017-09-11T12:57:18.794Z,255
2017-09-11T12:58:28.739Z,245
2017-09-11T12:59:39.005Z,210
2017-09-11T13:00:48.634Z,180
2017-09-11T13:01:58.903Z,160
2017-09-11T13:03:09.172Z,170
2017-09-11T13:04:19.125Z,140
2017-09-11T13:05:29.068Z,120
2017-09-11T13:06:39.639Z,110
2017-09-11T13:07:49.904Z,115
2017-09-11T13:08:59.846Z,115
2017-09-11T13:10:10.112Z,115
2017-09-11T13:11:20.409Z,130
2017-09-11T13:12:30.670Z,145
2017-09-11T13:13:40.977Z,160
2017-09-11T13:14:51.305Z,150
2017-09-11T13:16:00.926Z,140
2017-09-11T13:17:11.189Z,135
2017-09-11T13:18:21.137Z,145
2017-09-11T13:19:31.083Z,150
2017-09-11T13:20:41.065Z,180
2017-09-11T13:21:51.010Z,175
2017-09-11T13:23:01.278Z,155
2017-09-11T13:24:11.224Z,160
2017-09-11T13:25:20.845Z,140
2017-09-11T13:26:31.104Z,145
2017-09-11T13:27:41.052Z,175
2017-09-11T13:28:51.318Z,135
2017-09-11T13:30:01.262Z,155
2017-09-11T13:31:11.530Z,170
2017-09-11T13:32:21.801Z,165
2017-09-11T13:33:31.752Z,180
2017-09-11T13:34:42.046Z,175
2017-09-11T13:35:51.992Z,140
2017-09-11T13:37:01.293Z,145
2017-09-11T13:38:11.568Z,125
2017-09-11T13:39:21.522Z,115
2017-09-11T13:40:31.793Z,95
2017-09-11T13:41:41.742Z,100
2017-09-11T13:42:52.012Z,90
2017-09-11T13:44:01.961Z,100
2017-09-11T13:45:12.229Z,110
2017-09-11T13:46:22.502Z,95
2017-09-11T13:47:32.444Z,90
2017-09-11T13:48:42.396Z,85
2017-09-11T13:49:52.661Z,80
2017-09-11T13:51:02.935Z,85
2017-09-11T13:52:12.875Z,80
2017-09-11T13:53:22.817Z,75
2017-09-11T13:54:32.760Z,75
2017-09-11T13:55:42.702Z,80
2017-09-11T13:56:52.975Z,105
2017-09-11T13:58:03.251Z,100
2017-09-11T13:59:13.521Z,105
2017-09-11T14:00:23.149Z,110
2017-09-11T14:01:33.434Z,110
2017-09-11T14:02:42.738Z,85
2017-09-11T14:03:53.002Z,95
2017-09-11T14:05:02.945Z,85
2017-09-11T14:06:13.214Z,65
2017-09-11T14:07:22.517Z,80
2017-09-11T14:08:32.463Z,80
2017-09-11T14:09:42.756Z,70
2017-09-11T14:10:55.024Z,75
2017-09-11T14:12:05.290Z,90
2017-09-11T14:13:15.552Z,90
2017-09-11T14:14:25.819Z,95
2017-09-11T14:15:36.109Z,105
2017-09-11T14:16:45.410Z,105
2017-09-11T14:17:55.376Z,95
2017-09-11T14:19:05.638Z,75
2017-09-11T14:20:15.902Z,80
2017-09-11T14:21:25.851Z,75
2017-09-11T14:22:36.120Z,65
2017-09-11T14:23:45.750Z,55
2017-09-11T14:24:56.017Z,55
2017-09-11T14:26:05.961Z,55
2017-09-11T14:27:15.587Z,60
2017-09-11T14:28:25.213Z,55
2017-09-11T14:29:35.157Z,65
2017-09-11T14:30:45.099Z,50
2017-09-11T14:31:55.371Z,60
2017-09-11T14:33:05.633Z,60
2017-09-11T14:34:14.936Z,60
2017-09-11T14:35:25.196Z,50
2017-09-11T14:36:35.142Z,40
2017-09-11T14:37:45.411Z,35
2017-09-11T14:38:55.676Z,30
2017-09-11T14:40:05.614Z,25
2017-09-11T14:41:15.562Z,30
2017-09-11T14:42:25.192Z,30
2017-09-11T14:43:35.459Z,30
2017-09-11T14:44:45.401Z,35
2017-09-11T14:45:55.345Z,40
2017-09-11T14:47:05.598Z,40
2017-09-11T14:48:15.542Z,40
2017-09-11T14:49:25.481Z,45
2017-09-11T14:50:35.104Z,60
2017-09-11T14:51:45.048Z,65
2017-09-11T14:52:55.316Z,75
2017-09-11T14:54:04.339Z,60
2017-09-11T14:55:14.356Z,65
2017-09-11T14:56:24.328Z,55
2017-09-11T14:57:34.004Z,65
2017-09-11T14:58:44.276Z,90
2017-09-11T14:59:54.573Z,90
2017-09-11T15:01:04.841Z,90
2017-09-11T15:02:14.790Z,90
2017-09-11T15:03:24.412Z,85
2017-09-11T15:04:33.721Z,85
2017-09-11T15:05:44.013Z,100
2017-09-11T15:06:54.294Z,110
2017-09-11T15:08:04.328Z,150
2017-09-11T15:09:14.312Z,175
2017-09-11T15:10:23.982Z,180
2017-09-11T15:11:33.616Z,170
2017-09-11T15:12:43.930Z,130
2017-09-11T15:13:53.629Z,100
2017-09-11T15:15:04.086Z,95
2017-09-11T15:16:13.787Z,100
2017-09-11T15:17:23.781Z,110
2017-09-11T15:18:33.469Z,90
2017-09-11T15:19:43.742Z,60
2017-09-11T15:20:54.005Z,60
2017-09-11T15:22:03.953Z,50
2017-09-11T15:23:14.224Z,45
2017-09-11T15:24:23.849Z,45
2017-09-11T15:25:33.478Z,50
2017-09-11T15:26:43.421Z,50
2017-09-11T15:27:53.364Z,45
2017-09-11T15:29:03.634Z,50
2017-09-11T15:30:13.904Z,70
2017-09-11T15:31:23.850Z,95
2017-09-11T15:32:34.113Z,105
2017-09-11T15:33:43.735Z,115
2017-09-11T15:34:54.008Z,125
2017-09-11T15:36:03.967Z,130
2017-09-11T15:37:13.924Z,120
2017-09-11T15:38:24.192Z,115
2017-09-11T15:39:34.456Z,120
2017-09-11T15:40:44.401Z,135
2017-09-11T15:41:54.345Z,140
2017-09-11T15:43:04.316Z,180
2017-09-11T15:44:14.263Z,175
2017-09-11T15:45:24.204Z,180
2017-09-11T15:46:33.828Z,175
2017-09-11T15:47:43.785Z,140
2017-09-11T15:48:53.729Z,150
2017-09-11T15:50:03.680Z,155
2017-09-11T15:51:13.948Z,170
2017-09-11T15:52:23.891Z,185
2017-09-11T15:53:33.514Z,165
2017-09-11T15:54:43.134Z,135
2017-09-11T15:55:53.395Z,140
2017-09-11T15:57:03.657Z,170
2017-09-11T15:58:13.284Z,185
2017-09-11T15:59:23.229Z,190
2017-09-11T16:00:33.498Z,180
2017-09-11T16:01:43.443Z,155
2017-09-11T16:02:53.706Z,145
2017-09-11T16:04:03.967Z,135
2017-09-11T16:05:13.917Z,130
2017-09-11T16:06:23.865Z,115
2017-09-11T16:07:33.809Z,95
2017-09-11T16:08:43.429Z,85
2017-09-11T16:09:53.697Z,80
2017-09-11T16:11:03.678Z,90
2017-09-11T16:12:13.985Z,120
2017-09-11T16:13:23.928Z,140
2017-09-11T16:14:33.235Z,165
2017-09-11T16:15:43.176Z,140
2017-09-11T16:16:53.467Z,110
2017-09-11T16:18:03.085Z,110
2017-09-11T16:19:13.348Z,100
2017-09-11T16:20:23.613Z,85
2017-09-11T16:21:33.564Z,80
2017-09-11T16:22:43.184Z,85
2017-09-11T16:23:53.448Z,85
2017-09-11T16:25:03.715Z,80
2017-09-11T16:26:13.984Z,85
2017-09-11T16:27:23.935Z,80
2017-09-11T16:28:34.206Z,70
2017-09-11T16:29:44.146Z,65
2017-09-11T16:30:54.411Z,60
2017-09-11T16:32:04.356Z,60
2017-09-11T16:33:14.299Z,60
2017-09-11T16:34:24.566Z,60
2017-09-11T16:35:34.188Z,55
2017-09-11T16:36:44.134Z,50
2017-09-11T16:37:54.400Z,45
2017-09-11T16:39:04.679Z,45
2017-09-11T16:40:14.305Z,40
2017-09-11T16:41:23.922Z,40